sensor_id;sensor_type;location;lat;lon;timestamp;temperature;humidity
12771;DHT22;6449;47.666;9.160;2024-02-15T00:00:36;6.20;99.90
12771;DHT22;6449;47.666;9.160;2024-02-15T00:05:30;6.20;99.90
12771;DHT22;6449;47.666;9.160;2024-02-15T00:10:27;6.10;99.90
12771;DHT22;6449;47.666;9.160;2024-02-15T00:15:25;6.20;99.90
12771;DHT22;6449;47.666;9.160;2024-02-15T00:20:26;6.10;99.90
12771;DHT22;6449;47.666;9.160;2024-02-15T00:25:19;6.00;99.90
12771;DHT22;6449;47.666;9.160;2024-02-15T00:30:14;5.90;99.90
12771;DHT22;6449;47.666;9.160;2024-02-15T00:35:09;5.80;99.90
12771;DHT22;6449;47.666;9.160;2024-02-15T00:40:06;5.80;99.90
12771;DHT22;6449;47.666;9.160;2024-02-15T00:45:01;5.80;99.90
12771;DHT22;6449;47.666;9.160;2024-02-15T00:49:55;5.70;99.90
12771;DHT22;6449;47.666;9.160;2024-02-15T00:54:49;5.60;99.90
12771;DHT22;6449;47.666;9.160;2024-02-15T00:59:44;5.60;99.90
12771;DHT22;6449;47.666;9.160;2024-02-15T01:04:38;5.50;99.90
12771;DHT22;6449;47.666;9.160;2024-02-15T01:09:32;5.30;99.90
12771;DHT22;6449;47.666;9.160;2024-02-15T01:14:26;5.20;99.90
12771;DHT22;6449;47.666;9.160;2024-02-15T01:19:28;5.30;99.90
12771;DHT22;6449;47.666;9.160;2024-02-15T01:24:22;5.30;99.90
12771;DHT22;6449;47.666;9.160;2024-02-15T01:29:17;5.30;99.90
12771;DHT22;6449;47.666;9.160;2024-02-15T01:34:12;5.20;99.90
12771;DHT22;6449;47.666;9.160;2024-02-15T01:39:07;5.10;99.90
12771;DHT22;6449;47.666;9.160;2024-02-15T01:44:03;4.90;99.90
12771;DHT22;6449;47.666;9.160;2024-02-15T01:48:59;4.90;99.90
12771;DHT22;6449;47.666;9.160;2024-02-15T01:53:57;4.90;99.90
12771;DHT22;6449;47.666;9.160;2024-02-15T01:58:53;4.80;99.90
12771;DHT22;6449;47.666;9.160;2024-02-15T02:03:47;4.80;99.90
12771;DHT22;6449;47.666;9.160;2024-02-15T02:08:41;4.70;99.90
12771;DHT22;6449;47.666;9.160;2024-02-15T02:13:34;4.70;99.90
12771;DHT22;6449;47.666;9.160;2024-02-15T02:18:29;4.70;99.90
12771;DHT22;6449;47.666;9.160;2024-02-15T02:23:28;4.60;99.90
12771;DHT22;6449;47.666;9.160;2024-02-15T02:28:25;4.60;99.90
12771;DHT22;6449;47.666;9.160;2024-02-15T02:33:22;4.60;99.90
12771;DHT22;6449;47.666;9.160;2024-02-15T02:38:20;4.60;99.90
12771;DHT22;6449;47.666;9.160;2024-02-15T02:43:14;4.50;99.90
12771;DHT22;6449;47.666;9.160;2024-02-15T02:48:11;4.30;99.90
12771;DHT22;6449;47.666;9.160;2024-02-15T02:53:14;4.30;99.90
12771;DHT22;6449;47.666;9.160;2024-02-15T02:58:08;4.40;99.90
12771;DHT22;6449;47.666;9.160;2024-02-15T03:03:02;4.40;99.90
12771;DHT22;6449;47.666;9.160;2024-02-15T03:07:58;4.40;99.90
12771;DHT22;6449;47.666;9.160;2024-02-15T03:12:52;4.30;99.90
12771;DHT22;6449;47.666;9.160;2024-02-15T03:17:47;4.10;99.90
12771;DHT22;6449;47.666;9.160;2024-02-15T03:22:44;4.00;99.90
12771;DHT22;6449;47.666;9.160;2024-02-15T03:27:39;4.00;99.90
12771;DHT22;6449;47.666;9.160;2024-02-15T03:32:34;4.00;99.90
12771;DHT22;6449;47.666;9.160;2024-02-15T03:37:27;3.90;99.90
12771;DHT22;6449;47.666;9.160;2024-02-15T03:42:21;3.90;99.90
12771;DHT22;6449;47.666;9.160;2024-02-15T03:47:17;3.90;99.90
12771;DHT22;6449;47.666;9.160;2024-02-15T03:52:13;4.00;99.90
12771;DHT22;6449;47.666;9.160;2024-02-15T03:57:07;4.00;99.90
12771;DHT22;6449;47.666;9.160;2024-02-15T04:02:05;3.90;99.90
12771;DHT22;6449;47.666;9.160;2024-02-15T04:07:05;3.90;99.90
12771;DHT22;6449;47.666;9.160;2024-02-15T04:11:59;3.70;99.90
12771;DHT22;6449;47.666;9.160;2024-02-15T04:16:53;3.70;99.90
12771;DHT22;6449;47.666;9.160;2024-02-15T04:21:50;3.60;99.90
12771;DHT22;6449;47.666;9.160;2024-02-15T04:26:49;3.50;99.90
12771;DHT22;6449;47.666;9.160;2024-02-15T04:31:46;3.50;99.90
12771;DHT22;6449;47.666;9.160;2024-02-15T04:36:41;3.60;99.90
12771;DHT22;6449;47.666;9.160;2024-02-15T04:41:37;3.60;99.90
12771;DHT22;6449;47.666;9.160;2024-02-15T04:46:34;3.60;99.90
12771;DHT22;6449;47.666;9.160;2024-02-15T04:51:28;3.60;99.90
12771;DHT22;6449;47.666;9.160;2024-02-15T04:56:24;3.70;99.90
12771;DHT22;6449;47.666;9.160;2024-02-15T05:01:19;3.60;99.90
12771;DHT22;6449;47.666;9.160;2024-02-15T05:06:15;3.50;99.90
12771;DHT22;6449;47.666;9.160;2024-02-15T05:11:12;3.40;99.90
12771;DHT22;6449;47.666;9.160;2024-02-15T05:16:10;3.40;99.90
12771;DHT22;6449;47.666;9.160;2024-02-15T05:21:05;3.40;99.90
12771;DHT22;6449;47.666;9.160;2024-02-15T05:26:04;3.40;99.90
12771;DHT22;6449;47.666;9.160;2024-02-15T05:31:14;3.40;99.90
12771;DHT22;6449;47.666;9.160;2024-02-15T05:36:10;3.40;99.90
12771;DHT22;6449;47.666;9.160;2024-02-15T05:41:06;3.30;99.90
12771;DHT22;6449;47.666;9.160;2024-02-15T05:46:03;3.20;99.90
12771;DHT22;6449;47.666;9.160;2024-02-15T05:50:58;3.00;99.90
12771;DHT22;6449;47.666;9.160;2024-02-15T05:55:54;3.00;99.90
12771;DHT22;6449;47.666;9.160;2024-02-15T06:00:51;2.90;99.90
12771;DHT22;6449;47.666;9.160;2024-02-15T06:05:46;3.00;99.90
12771;DHT22;6449;47.666;9.160;2024-02-15T06:10:40;2.90;99.90
12771;DHT22;6449;47.666;9.160;2024-02-15T06:15:34;2.80;99.90
12771;DHT22;6449;47.666;9.160;2024-02-15T06:20:29;2.90;99.90
12771;DHT22;6449;47.666;9.160;2024-02-15T06:25:23;3.00;99.90
12771;DHT22;6449;47.666;9.160;2024-02-15T06:30:17;3.10;99.90
12771;DHT22;6449;47.666;9.160;2024-02-15T06:35:29;3.10;99.90
12771;DHT22;6449;47.666;9.160;2024-02-15T06:40:42;3.10;99.90
12771;DHT22;6449;47.666;9.160;2024-02-15T06:45:36;3.00;99.90
12771;DHT22;6449;47.666;9.160;2024-02-15T06:50:34;2.90;99.90
12771;DHT22;6449;47.666;9.160;2024-02-15T06:55:29;2.90;99.90
12771;DHT22;6449;47.666;9.160;2024-02-15T07:00:26;2.80;99.90
12771;DHT22;6449;47.666;9.160;2024-02-15T07:05:22;2.70;99.90
12771;DHT22;6449;47.666;9.160;2024-02-15T07:10:17;2.80;99.90
12771;DHT22;6449;47.666;9.160;2024-02-15T07:15:10;3.00;99.90
12771;DHT22;6449;47.666;9.160;2024-02-15T07:20:06;3.00;99.90
12771;DHT22;6449;47.666;9.160;2024-02-15T07:25:21;3.00;99.90
12771;DHT22;6449;47.666;9.160;2024-02-15T07:30:18;3.00;99.90
12771;DHT22;6449;47.666;9.160;2024-02-15T07:35:15;3.10;99.90
12771;DHT22;6449;47.666;9.160;2024-02-15T07:40:13;3.40;99.90
12771;DHT22;6449;47.666;9.160;2024-02-15T07:45:10;3.70;99.90
12771;DHT22;6449;47.666;9.160;2024-02-15T07:50:04;3.90;99.90
12771;DHT22;6449;47.666;9.160;2024-02-15T07:54:59;4.10;99.90
12771;DHT22;6449;47.666;9.160;2024-02-15T07:59:53;4.30;99.90
12771;DHT22;6449;47.666;9.160;2024-02-15T08:04:48;4.40;99.90
12771;DHT22;6449;47.666;9.160;2024-02-15T08:09:43;4.50;99.90
12771;DHT22;6449;47.666;9.160;2024-02-15T08:14:37;4.60;99.90
12771;DHT22;6449;47.666;9.160;2024-02-15T08:19:34;4.70;99.90
12771;DHT22;6449;47.666;9.160;2024-02-15T08:24:32;4.80;99.90
12771;DHT22;6449;47.666;9.160;2024-02-15T08:29:38;4.90;99.90
12771;DHT22;6449;47.666;9.160;2024-02-15T08:34:39;5.10;99.90
12771;DHT22;6449;47.666;9.160;2024-02-15T08:39:58;5.20;99.90
12771;DHT22;6449;47.666;9.160;2024-02-15T08:44:55;5.40;99.90
12771;DHT22;6449;47.666;9.160;2024-02-15T08:49:48;5.60;99.90
12771;DHT22;6449;47.666;9.160;2024-02-15T08:54:44;5.90;99.90
12771;DHT22;6449;47.666;9.160;2024-02-15T08:59:40;6.20;99.90
12771;DHT22;6449;47.666;9.160;2024-02-15T09:04:35;6.20;99.90
12771;DHT22;6449;47.666;9.160;2024-02-15T09:09:31;6.40;99.90
12771;DHT22;6449;47.666;9.160;2024-02-15T09:14:25;6.50;99.90
12771;DHT22;6449;47.666;9.160;2024-02-15T09:19:20;6.60;99.90
12771;DHT22;6449;47.666;9.160;2024-02-15T09:24:18;6.80;99.90
12771;DHT22;6449;47.666;9.160;2024-02-15T09:29:13;6.90;99.90
12771;DHT22;6449;47.666;9.160;2024-02-15T09:34:07;7.10;99.90
12771;DHT22;6449;47.666;9.160;2024-02-15T09:39:02;7.30;99.90
12771;DHT22;6449;47.666;9.160;2024-02-15T09:43:58;7.50;99.90
12771;DHT22;6449;47.666;9.160;2024-02-15T09:48:56;7.60;99.90
12771;DHT22;6449;47.666;9.160;2024-02-15T09:53:52;7.60;99.90
12771;DHT22;6449;47.666;9.160;2024-02-15T09:58:51;7.90;99.90
12771;DHT22;6449;47.666;9.160;2024-02-15T10:03:44;8.00;99.90
12771;DHT22;6449;47.666;9.160;2024-02-15T10:08:42;8.10;99.90
12771;DHT22;6449;47.666;9.160;2024-02-15T10:13:39;8.20;99.90
12771;DHT22;6449;47.666;9.160;2024-02-15T10:18:38;8.30;99.90
12771;DHT22;6449;47.666;9.160;2024-02-15T10:23:36;8.40;99.90
12771;DHT22;6449;47.666;9.160;2024-02-15T10:28:32;8.40;99.90
12771;DHT22;6449;47.666;9.160;2024-02-15T10:33:28;8.40;99.90
12771;DHT22;6449;47.666;9.160;2024-02-15T10:38:25;8.40;99.90
12771;DHT22;6449;47.666;9.160;2024-02-15T10:43:19;8.40;99.90
12771;DHT22;6449;47.666;9.160;2024-02-15T10:48:13;8.50;99.90
12771;DHT22;6449;47.666;9.160;2024-02-15T10:53:14;8.50;99.90
12771;DHT22;6449;47.666;9.160;2024-02-15T10:58:20;8.50;99.90
12771;DHT22;6449;47.666;9.160;2024-02-15T11:03:21;8.40;99.90
12771;DHT22;6449;47.666;9.160;2024-02-15T11:08:18;8.20;99.90
12771;DHT22;6449;47.666;9.160;2024-02-15T11:13:12;8.10;99.90
12771;DHT22;6449;47.666;9.160;2024-02-15T11:18:08;8.10;99.90
12771;DHT22;6449;47.666;9.160;2024-02-15T11:23:03;8.20;99.90
12771;DHT22;6449;47.666;9.160;2024-02-15T11:27:56;8.30;99.90
12771;DHT22;6449;47.666;9.160;2024-02-15T11:32:50;8.20;99.90
12771;DHT22;6449;47.666;9.160;2024-02-15T11:37:58;8.30;99.90
12771;DHT22;6449;47.666;9.160;2024-02-15T11:42:57;8.40;99.90
12771;DHT22;6449;47.666;9.160;2024-02-15T11:47:56;8.50;99.90
12771;DHT22;6449;47.666;9.160;2024-02-15T11:52:51;8.80;99.90
12771;DHT22;6449;47.666;9.160;2024-02-15T11:57:56;9.00;99.90
12771;DHT22;6449;47.666;9.160;2024-02-15T12:02:59;9.20;99.90
12771;DHT22;6449;47.666;9.160;2024-02-15T12:08:10;9.40;99.90
12771;DHT22;6449;47.666;9.160;2024-02-15T12:13:23;9.50;99.90
12771;DHT22;6449;47.666;9.160;2024-02-15T12:18:33;9.80;99.90
12771;DHT22;6449;47.666;9.160;2024-02-15T12:23:37;9.90;99.90
12771;DHT22;6449;47.666;9.160;2024-02-15T12:28:34;10.10;99.90
12771;DHT22;6449;47.666;9.160;2024-02-15T12:33:28;10.30;99.90
12771;DHT22;6449;47.666;9.160;2024-02-15T12:38:21;10.40;99.90
12771;DHT22;6449;47.666;9.160;2024-02-15T12:43:18;10.50;99.90
12771;DHT22;6449;47.666;9.160;2024-02-15T12:48:14;10.60;99.90
12771;DHT22;6449;47.666;9.160;2024-02-15T12:53:11;10.70;99.90
12771;DHT22;6449;47.666;9.160;2024-02-15T12:58:12;10.90;99.90
12771;DHT22;6449;47.666;9.160;2024-02-15T13:03:08;11.00;99.90
12771;DHT22;6449;47.666;9.160;2024-02-15T13:08:05;11.10;99.90
12771;DHT22;6449;47.666;9.160;2024-02-15T13:13:04;11.20;99.90
12771;DHT22;6449;47.666;9.160;2024-02-15T13:18:04;11.20;99.90
12771;DHT22;6449;47.666;9.160;2024-02-15T13:22:59;11.30;99.90
12771;DHT22;6449;47.666;9.160;2024-02-15T13:27:56;11.40;99.90
12771;DHT22;6449;47.666;9.160;2024-02-15T13:32:51;11.60;99.90
12771;DHT22;6449;47.666;9.160;2024-02-15T13:37:46;11.60;99.90
12771;DHT22;6449;47.666;9.160;2024-02-15T13:42:43;11.60;99.90
12771;DHT22;6449;47.666;9.160;2024-02-15T13:47:44;11.70;99.90
12771;DHT22;6449;47.666;9.160;2024-02-15T13:52:41;11.70;99.90
12771;DHT22;6449;47.666;9.160;2024-02-15T13:57:36;11.60;99.90
12771;DHT22;6449;47.666;9.160;2024-02-15T14:02:30;11.60;99.90
12771;DHT22;6449;47.666;9.160;2024-02-15T14:07:27;11.60;99.90
12771;DHT22;6449;47.666;9.160;2024-02-15T14:12:21;11.60;99.90
12771;DHT22;6449;47.666;9.160;2024-02-15T14:17:16;11.50;99.90
12771;DHT22;6449;47.666;9.160;2024-02-15T14:22:11;11.40;99.90
12771;DHT22;6449;47.666;9.160;2024-02-15T14:27:09;11.40;99.90
12771;DHT22;6449;47.666;9.160;2024-02-15T14:32:05;11.20;99.90
12771;DHT22;6449;47.666;9.160;2024-02-15T14:37:17;11.10;99.90
12771;DHT22;6449;47.666;9.160;2024-02-15T14:47:17;11.00;99.90
12771;DHT22;6449;47.666;9.160;2024-02-15T14:52:14;11.00;99.90
12771;DHT22;6449;47.666;9.160;2024-02-15T14:57:07;11.00;99.90
12771;DHT22;6449;47.666;9.160;2024-02-15T15:02:01;10.90;99.90
12771;DHT22;6449;47.666;9.160;2024-02-15T15:07:04;10.90;99.90
12771;DHT22;6449;47.666;9.160;2024-02-15T15:12:15;10.90;99.90
12771;DHT22;6449;47.666;9.160;2024-02-15T15:17:27;10.80;99.90
12771;DHT22;6449;47.666;9.160;2024-02-15T15:22:23;10.80;99.90
12771;DHT22;6449;47.666;9.160;2024-02-15T15:27:19;10.80;99.90
12771;DHT22;6449;47.666;9.160;2024-02-15T15:32:13;10.70;99.90
12771;DHT22;6449;47.666;9.160;2024-02-15T15:37:07;10.70;99.90
12771;DHT22;6449;47.666;9.160;2024-02-15T15:42:02;10.60;99.90
12771;DHT22;6449;47.666;9.160;2024-02-15T15:46:59;10.60;99.90
12771;DHT22;6449;47.666;9.160;2024-02-15T15:51:53;10.50;99.90
12771;DHT22;6449;47.666;9.160;2024-02-15T15:56:46;10.40;99.90
12771;DHT22;6449;47.666;9.160;2024-02-15T16:01:51;10.30;99.90
12771;DHT22;6449;47.666;9.160;2024-02-15T16:06:45;10.20;99.90
12771;DHT22;6449;47.666;9.160;2024-02-15T16:11:41;10.10;99.90
12771;DHT22;6449;47.666;9.160;2024-02-15T16:16:34;10.10;99.90
12771;DHT22;6449;47.666;9.160;2024-02-15T16:21:29;9.90;99.90
12771;DHT22;6449;47.666;9.160;2024-02-15T16:26:23;9.70;99.90
12771;DHT22;6449;47.666;9.160;2024-02-15T16:31:18;9.60;99.90
12771;DHT22;6449;47.666;9.160;2024-02-15T16:36:12;9.40;99.90
12771;DHT22;6449;47.666;9.160;2024-02-15T16:41:09;9.30;99.90
12771;DHT22;6449;47.666;9.160;2024-02-15T16:46:03;9.10;99.90
12771;DHT22;6449;47.666;9.160;2024-02-15T16:51:01;9.10;99.90
12771;DHT22;6449;47.666;9.160;2024-02-15T16:56:01;9.00;99.90
12771;DHT22;6449;47.666;9.160;2024-02-15T17:00:56;8.90;99.90
12771;DHT22;6449;47.666;9.160;2024-02-15T17:05:52;8.80;99.90
12771;DHT22;6449;47.666;9.160;2024-02-15T17:10:45;8.80;99.90
12771;DHT22;6449;47.666;9.160;2024-02-15T17:15:40;8.70;99.90
12771;DHT22;6449;47.666;9.160;2024-02-15T17:20:35;8.70;99.90
12771;DHT22;6449;47.666;9.160;2024-02-15T17:25:28;8.60;99.90
12771;DHT22;6449;47.666;9.160;2024-02-15T17:30:25;8.50;99.90
12771;DHT22;6449;47.666;9.160;2024-02-15T17:35:19;8.50;99.90
12771;DHT22;6449;47.666;9.160;2024-02-15T17:40:15;8.40;99.90
12771;DHT22;6449;47.666;9.160;2024-02-15T17:45:11;8.40;99.90
12771;DHT22;6449;47.666;9.160;2024-02-15T17:50:09;8.40;99.90
12771;DHT22;6449;47.666;9.160;2024-02-15T17:55:07;8.30;99.90
12771;DHT22;6449;47.666;9.160;2024-02-15T18:00:06;8.30;99.90
12771;DHT22;6449;47.666;9.160;2024-02-15T18:05:05;8.20;99.90
12771;DHT22;6449;47.666;9.160;2024-02-15T18:10:00;8.20;99.90
12771;DHT22;6449;47.666;9.160;2024-02-15T18:14:55;8.10;99.90
12771;DHT22;6449;47.666;9.160;2024-02-15T18:19:50;8.00;99.90
12771;DHT22;6449;47.666;9.160;2024-02-15T18:24:45;8.00;99.90
12771;DHT22;6449;47.666;9.160;2024-02-15T18:29:42;7.90;99.90
12771;DHT22;6449;47.666;9.160;2024-02-15T18:34:36;7.90;99.90
12771;DHT22;6449;47.666;9.160;2024-02-15T18:39:31;7.90;99.90
12771;DHT22;6449;47.666;9.160;2024-02-15T18:44:25;7.90;99.90
12771;DHT22;6449;47.666;9.160;2024-02-15T18:49:20;7.80;99.90
12771;DHT22;6449;47.666;9.160;2024-02-15T18:54:27;7.70;99.90
12771;DHT22;6449;47.666;9.160;2024-02-15T18:59:24;7.60;99.90
12771;DHT22;6449;47.666;9.160;2024-02-15T19:04:21;7.50;99.90
12771;DHT22;6449;47.666;9.160;2024-02-15T19:09:15;7.50;99.90
12771;DHT22;6449;47.666;9.160;2024-02-15T19:14:12;7.50;99.90
12771;DHT22;6449;47.666;9.160;2024-02-15T19:19:11;7.60;99.90
12771;DHT22;6449;47.666;9.160;2024-02-15T19:24:08;7.50;99.90
12771;DHT22;6449;47.666;9.160;2024-02-15T19:29:04;7.40;99.90
12771;DHT22;6449;47.666;9.160;2024-02-15T19:33:59;7.10;99.90
12771;DHT22;6449;47.666;9.160;2024-02-15T19:38:54;7.00;99.90
12771;DHT22;6449;47.666;9.160;2024-02-15T19:43:51;7.10;99.90
12771;DHT22;6449;47.666;9.160;2024-02-15T19:48:45;7.00;99.90
12771;DHT22;6449;47.666;9.160;2024-02-15T19:53:44;7.00;99.90
12771;DHT22;6449;47.666;9.160;2024-02-15T19:58:39;6.90;99.90
12771;DHT22;6449;47.666;9.160;2024-02-15T20:03:35;6.90;99.90
12771;DHT22;6449;47.666;9.160;2024-02-15T20:08:28;6.90;99.90
12771;DHT22;6449;47.666;9.160;2024-02-15T20:13:23;7.00;99.90
12771;DHT22;6449;47.666;9.160;2024-02-15T20:18:20;6.90;99.90
12771;DHT22;6449;47.666;9.160;2024-02-15T20:23:14;6.90;99.90
12771;DHT22;6449;47.666;9.160;2024-02-15T20:28:08;6.90;99.90
12771;DHT22;6449;47.666;9.160;2024-02-15T20:33:01;7.00;99.90
12771;DHT22;6449;47.666;9.160;2024-02-15T20:38:05;6.90;99.90
12771;DHT22;6449;47.666;9.160;2024-02-15T20:43:01;6.90;99.90
12771;DHT22;6449;47.666;9.160;2024-02-15T20:47:55;6.90;99.90
12771;DHT22;6449;47.666;9.160;2024-02-15T20:52:48;6.90;99.90
12771;DHT22;6449;47.666;9.160;2024-02-15T20:57:44;7.00;99.90
12771;DHT22;6449;47.666;9.160;2024-02-15T21:02:37;7.00;99.90
12771;DHT22;6449;47.666;9.160;2024-02-15T21:07:34;7.00;99.90
12771;DHT22;6449;47.666;9.160;2024-02-15T21:12:28;6.90;99.90
12771;DHT22;6449;47.666;9.160;2024-02-15T21:17:23;6.80;99.90
12771;DHT22;6449;47.666;9.160;2024-02-15T21:22:17;6.80;99.90
12771;DHT22;6449;47.666;9.160;2024-02-15T21:27:11;6.70;99.90
12771;DHT22;6449;47.666;9.160;2024-02-15T21:32:05;6.60;99.90
12771;DHT22;6449;47.666;9.160;2024-02-15T21:37:08;6.70;99.90
12771;DHT22;6449;47.666;9.160;2024-02-15T21:42:06;6.70;99.90
12771;DHT22;6449;47.666;9.160;2024-02-15T21:47:00;6.70;99.90
12771;DHT22;6449;47.666;9.160;2024-02-15T21:51:57;6.70;99.90
12771;DHT22;6449;47.666;9.160;2024-02-15T21:56:54;6.80;99.90
12771;DHT22;6449;47.666;9.160;2024-02-15T22:01:48;6.80;99.90
12771;DHT22;6449;47.666;9.160;2024-02-15T22:06:44;6.80;99.90
12771;DHT22;6449;47.666;9.160;2024-02-15T22:11:39;6.80;99.90
12771;DHT22;6449;47.666;9.160;2024-02-15T22:16:35;6.60;99.90
12771;DHT22;6449;47.666;9.160;2024-02-15T22:21:31;6.60;99.90
12771;DHT22;6449;47.666;9.160;2024-02-15T22:26:27;6.60;99.90
12771;DHT22;6449;47.666;9.160;2024-02-15T22:31:22;6.40;99.90
12771;DHT22;6449;47.666;9.160;2024-02-15T22:36:21;6.40;99.90
12771;DHT22;6449;47.666;9.160;2024-02-15T22:41:16;6.40;99.90
12771;DHT22;6449;47.666;9.160;2024-02-15T22:46:09;6.30;99.90
12771;DHT22;6449;47.666;9.160;2024-02-15T22:51:03;6.40;99.90
12771;DHT22;6449;47.666;9.160;2024-02-15T22:55:59;6.30;99.90
12771;DHT22;6449;47.666;9.160;2024-02-15T23:00:53;6.30;99.90
12771;DHT22;6449;47.666;9.160;2024-02-15T23:05:47;6.40;99.90
12771;DHT22;6449;47.666;9.160;2024-02-15T23:10:45;6.50;99.90
12771;DHT22;6449;47.666;9.160;2024-02-15T23:15:40;6.40;99.90
12771;DHT22;6449;47.666;9.160;2024-02-15T23:20:34;6.40;99.90
12771;DHT22;6449;47.666;9.160;2024-02-15T23:25:30;6.50;99.90
12771;DHT22;6449;47.666;9.160;2024-02-15T23:30:25;6.50;99.90
12771;DHT22;6449;47.666;9.160;2024-02-15T23:35:20;6.60;99.90
12771;DHT22;6449;47.666;9.160;2024-02-15T23:40:22;6.60;99.90
12771;DHT22;6449;47.666;9.160;2024-02-15T23:45:19;6.60;99.90
12771;DHT22;6449;47.666;9.160;2024-02-15T23:50:15;6.60;99.90
12771;DHT22;6449;47.666;9.160;2024-02-15T23:55:14;6.50;99.90
